Time;durP1;ratioP1;P1;durP2;ratioP2;P2;SDS_P1;SDS_P2;PMS_P1;PMS_P2;Temp;Humidity;BMP_temperature;BMP_pressure;BME280_temperature;BME280_humidity;BME280_pressure;Samples;Min_cycle;Max_cycle;Signal;HPM_P1;HPM_P2
2021/11/10 00:00:07;;;;;;;28.55;17.02;;;;;;;;;;5049866;28;20044;-71
2021/11/10 00:02:32;;;;;;;28.20;16.42;;;;;;;;;;5051106;28;20032;-70
2021/11/10 00:04:58;;;;;;;28.67;16.52;;;;;;;;;;5051720;28;20025;-71
2021/11/10 00:07:23;;;;;;;26.20;15.70;;;;;;;;;;5053069;28;20025;-71
2021/11/10 00:09:48;;;;;;;25.45;15.35;;;;;;;;;;5057911;28;20427;-70
2021/11/10 00:12:13;;;;;;;27.40;15.07;;;;;;;;;;5049921;28;20032;-72
2021/11/10 00:14:39;;;;;;;24.65;14.82;;;;;;;;;;5045385;28;20025;-73
2021/11/10 00:17:04;;;;;;;25.98;15.95;;;;;;;;;;5049310;28;20509;-70
2021/11/10 00:19:29;;;;;;;25.98;15.98;;;;;;;;;;5044641;28;20021;-70
2021/11/10 00:21:54;;;;;;;28.20;16.80;;;;;;;;;;5051651;28;20063;-71
2021/11/10 00:24:20;;;;;;;25.30;15.85;;;;;;;;;;5043122;28;20039;-70
2021/11/10 00:26:45;;;;;;;28.27;15.70;;;;;;;;;;5050121;28;20032;-72
2021/11/10 00:29:10;;;;;;;29.13;16.48;;;;;;;;;;5047000;28;20037;-71
2021/11/10 00:31:35;;;;;;;27.35;16.25;;;;;;;;;;5050105;28;20482;-71
2021/11/10 00:34:01;;;;;;;29.90;15.65;;;;;;;;;;5050184;28;20614;-70
2021/11/10 00:36:26;;;;;;;28.48;15.63;;;;;;;;;;5046156;28;20033;-70
2021/11/10 00:38:51;;;;;;;29.55;15.77;;;;;;;;;;5045488;28;20037;-69
2021/11/10 00:41:16;;;;;;;28.77;16.50;;;;;;;;;;5047047;28;20029;-69
2021/11/10 00:43:41;;;;;;;26.58;15.18;;;;;;;;;;5050282;28;20039;-70
2021/11/10 00:46:07;;;;;;;26.25;16.23;;;;;;;;;;5046172;28;20515;-72
2021/11/10 00:48:32;;;;;;;24.00;15.25;;;;;;;;;;5047361;28;20029;-71
2021/11/10 00:50:57;;;;;;;27.48;15.07;;;;;;;;;;5046965;28;20083;-71
2021/11/10 00:53:22;;;;;;;25.65;15.82;;;;;;;;;;5044880;28;20889;-71
2021/11/10 00:55:48;;;;;;;26.52;15.57;;;;;;;;;;5049700;28;20029;-70
2021/11/10 00:58:13;;;;;;;24.60;15.02;;;;;;;;;;5050480;28;20028;-69
2021/11/10 01:00:38;;;;;;;25.45;15.43;;;;;;;;;;5045730;28;20065;-71
2021/11/10 01:03:04;;;;;;;27.35;15.77;;;;;;;;;;5043397;28;20104;-70
2021/11/10 01:05:32;;;;;;;27.10;16.10;;;;;;;;;;5044836;28;20017;-71
2021/11/10 01:07:57;;;;;;;28.10;15.95;;;;;;;;;;5048673;28;20020;-71
2021/11/10 01:10:23;;;;;;;30.95;15.85;;;;;;;;;;5048041;28;20043;-70
2021/11/10 01:12:49;;;;;;;22.42;14.27;;;;;;;;;;5045491;28;20039;-71
2021/11/10 01:15:15;;;;;;;25.25;14.52;;;;;;;;;;5048937;28;20425;-70
2021/11/10 01:17:41;;;;;;;24.23;14.77;;;;;;;;;;5043754;28;20024;-71
2021/11/10 01:20:07;;;;;;;24.90;14.55;;;;;;;;;;5039400;28;20044;-71
2021/11/10 01:22:33;;;;;;;24.10;13.95;;;;;;;;;;5049623;28;20021;-70
2021/11/10 01:24:58;;;;;;;26.20;15.98;;;;;;;;;;5042149;28;20381;-71
2021/11/10 01:27:23;;;;;;;25.83;15.45;;;;;;;;;;5046172;28;20017;-71
2021/11/10 01:29:48;;;;;;;22.50;14.50;;;;;;;;;;5049022;28;20028;-71
2021/11/10 01:32:14;;;;;;;24.23;15.05;;;;;;;;;;5048926;28;20047;-70
2021/11/10 01:34:39;;;;;;;29.17;15.85;;;;;;;;;;5042804;28;20024;-72
2021/11/10 01:37:04;;;;;;;24.77;14.60;;;;;;;;;;5049343;28;20059;-70
2021/11/10 01:39:30;;;;;;;25.95;15.18;;;;;;;;;;5048578;28;20025;-71
2021/11/10 01:42:02;;;;;;;22.00;13.70;;;;;;;;;;5047656;28;20107;-71
2021/11/10 01:44:27;;;;;;;24.65;14.95;;;;;;;;;;5047949;28;20017;-72
2021/11/10 01:46:54;;;;;;;27.17;15.27;;;;;;;;;;5047673;28;20028;-70
2021/11/10 01:49:19;;;;;;;25.13;14.30;;;;;;;;;;5042967;28;20510;-71
2021/11/10 01:51:49;;;;;;;24.67;14.15;;;;;;;;;;5046766;28;20027;-71
2021/11/10 01:54:15;;;;;;;26.85;15.30;;;;;;;;;;5039715;28;20040;-70
2021/11/10 01:56:40;;;;;;;23.17;14.63;;;;;;;;;;5046713;28;20029;-71
2021/11/10 01:59:06;;;;;;;26.48;15.13;;;;;;;;;;5048979;28;20512;-69
2021/11/10 02:01:31;;;;;;;26.30;14.43;;;;;;;;;;5048279;28;20503;-69
2021/11/10 02:03:57;;;;;;;25.70;14.23;;;;;;;;;;5046018;28;20903;-71
2021/11/10 02:06:22;;;;;;;22.23;14.02;;;;;;;;;;5040248;28;20041;-71
2021/11/10 02:08:47;;;;;;;20.98;13.43;;;;;;;;;;5046045;28;20027;-70
2021/11/10 02:11:13;;;;;;;19.20;12.30;;;;;;;;;;5048767;28;20266;-70
2021/11/10 02:13:39;;;;;;;22.25;13.63;;;;;;;;;;5045371;28;20125;-70
2021/11/10 02:16:04;;;;;;;20.88;12.98;;;;;;;;;;5045101;28;20048;-70
2021/11/10 02:18:29;;;;;;;20.60;12.88;;;;;;;;;;5043994;28;20067;-70
2021/11/10 02:20:55;;;;;;;21.08;13.05;;;;;;;;;;5048680;28;20012;-70
2021/11/10 02:23:20;;;;;;;20.25;13.35;;;;;;;;;;5045064;28;20025;-69
2021/11/10 02:25:45;;;;;;;23.73;13.95;;;;;;;;;;5048208;28;20461;-70
2021/11/10 02:28:11;;;;;;;20.73;13.48;;;;;;;;;;5046354;28;20032;-69
2021/11/10 02:30:36;;;;;;;20.10;12.70;;;;;;;;;;5045788;28;20067;-70
2021/11/10 02:33:02;;;;;;;21.88;13.57;;;;;;;;;;5047239;28;20025;-71
2021/11/10 02:35:28;;;;;;;21.40;13.30;;;;;;;;;;5045210;28;20099;-70
2021/11/10 02:37:56;;;;;;;20.90;13.27;;;;;;;;;;5036858;28;20032;-70
2021/11/10 02:40:22;;;;;;;24.25;14.65;;;;;;;;;;5047084;28;20031;-70
2021/11/10 02:42:47;;;;;;;22.83;14.95;;;;;;;;;;5048244;28;20111;-70
2021/11/10 02:45:12;;;;;;;22.65;14.23;;;;;;;;;;5041855;28;20079;-71
2021/11/10 02:47:38;;;;;;;20.13;13.32;;;;;;;;;;5046601;28;20048;-70
2021/11/10 02:50:04;;;;;;;21.63;13.68;;;;;;;;;;5047855;28;20045;-71
2021/11/10 02:52:29;;;;;;;21.15;13.65;;;;;;;;;;5047832;28;20032;-70
2021/11/10 02:54:54;;;;;;;22.75;12.90;;;;;;;;;;5047956;28;20017;-70
2021/11/10 02:57:20;;;;;;;23.90;14.38;;;;;;;;;;5048135;28;20112;-70
2021/11/10 02:59:45;;;;;;;20.88;13.65;;;;;;;;;;5045635;28;20205;-70
2021/11/10 03:02:11;;;;;;;21.60;13.65;;;;;;;;;;5047266;28;20017;-71
2021/11/10 03:04:40;;;;;;;22.95;13.27;;;;;;;;;;5047789;28;20025;-69
2021/11/10 03:07:06;;;;;;;19.70;11.68;;;;;;;;;;5041306;28;20025;-69
2021/11/10 03:09:32;;;;;;;21.45;13.23;;;;;;;;;;5047993;28;20025;-69
2021/11/10 03:11:58;;;;;;;21.05;13.48;;;;;;;;;;5043313;28;20010;-70
2021/11/10 03:14:24;;;;;;;20.95;12.65;;;;;;;;;;5046339;28;20076;-70
2021/11/10 03:16:50;;;;;;;21.20;13.25;;;;;;;;;;5042238;28;20765;-69
2021/11/10 03:19:15;;;;;;;20.98;13.40;;;;;;;;;;5043270;28;20025;-69
2021/11/10 03:21:41;;;;;;;24.80;14.30;;;;;;;;;;5047231;28;20028;-70
2021/11/10 03:24:07;;;;;;;23.40;13.98;;;;;;;;;;5048612;28;20108;-69
2021/11/10 03:26:32;;;;;;;23.75;14.65;;;;;;;;;;5047571;28;20080;-70
2021/11/10 03:28:57;;;;;;;20.48;13.63;;;;;;;;;;5046613;28;20456;-70
2021/11/10 03:31:22;;;;;;;22.70;14.80;;;;;;;;;;5037374;28;20087;-70
2021/11/10 03:33:48;;;;;;;24.45;13.60;;;;;;;;;;5043360;28;20033;-72
2021/11/10 03:36:15;;;;;;;24.55;14.57;;;;;;;;;;5043830;28;20120;-71
2021/11/10 03:38:40;;;;;;;20.98;13.45;;;;;;;;;;5039669;28;20020;-71
2021/11/10 03:41:05;;;;;;;26.05;15.32;;;;;;;;;;5047754;28;20040;-71
2021/11/10 03:43:30;;;;;;;25.38;15.32;;;;;;;;;;5047075;28;20032;-70
2021/11/10 03:45:56;;;;;;;26.10;14.98;;;;;;;;;;5048058;28;20013;-70
2021/11/10 03:48:21;;;;;;;28.50;15.25;;;;;;;;;;5046117;28;20036;-71
2021/11/10 03:50:47;;;;;;;25.98;15.20;;;;;;;;;;5046006;28;20024;-71
2021/11/10 03:53:13;;;;;;;26.35;14.70;;;;;;;;;;5048268;28;20032;-71
2021/11/10 03:55:40;;;;;;;23.65;13.95;;;;;;;;;;5047380;28;20065;-70
2021/11/10 03:58:06;;;;;;;24.98;15.45;;;;;;;;;;5048112;28;20044;-69
2021/11/10 04:00:31;;;;;;;26.08;14.88;;;;;;;;;;5045595;28;20552;-70
2021/11/10 04:02:57;;;;;;;23.30;14.70;;;;;;;;;;5049528;28;20064;-69
2021/11/10 04:05:22;;;;;;;23.30;13.77;;;;;;;;;;5052221;28;20032;-69
2021/11/10 04:07:47;;;;;;;25.63;13.98;;;;;;;;;;5051106;28;20021;-70
2021/11/10 04:10:13;;;;;;;22.92;13.55;;;;;;;;;;5046124;28;20056;-70
2021/11/10 04:12:38;;;;;;;20.45;12.93;;;;;;;;;;5050270;28;20036;-69
2021/11/10 04:15:03;;;;;;;22.38;14.45;;;;;;;;;;5051488;28;20039;-69
2021/11/10 04:17:28;;;;;;;20.90;13.13;;;;;;;;;;5044218;28;20555;-69
2021/11/10 04:19:54;;;;;;;22.42;13.23;;;;;;;;;;5053578;28;20032;-70
2021/11/10 04:22:20;;;;;;;21.98;13.45;;;;;;;;;;5047134;28;20064;-69
2021/11/10 04:24:45;;;;;;;21.60;13.60;;;;;;;;;;5047348;28;20078;-70
2021/11/10 04:27:11;;;;;;;21.67;13.70;;;;;;;;;;5050488;28;20025;-69
2021/11/10 04:29:36;;;;;;;24.63;14.27;;;;;;;;;;5050688;28;20021;-71
2021/11/10 04:32:01;;;;;;;27.20;14.68;;;;;;;;;;5045718;28;20025;-69
2021/11/10 04:34:26;;;;;;;24.38;14.52;;;;;;;;;;5047667;28;20373;-70
2021/11/10 04:36:52;;;;;;;22.27;14.23;;;;;;;;;;5038367;28;20060;-70
2021/11/10 04:39:17;;;;;;;23.48;14.73;;;;;;;;;;5049699;28;20079;-70
2021/11/10 04:41:43;;;;;;;23.35;13.52;;;;;;;;;;5044341;28;20104;-70
2021/11/10 04:44:08;;;;;;;23.90;14.07;;;;;;;;;;5050147;28;20033;-71
2021/11/10 04:46:34;;;;;;;23.45;15.57;;;;;;;;;;5049861;28;20125;-69
2021/11/10 04:49:00;;;;;;;26.35;14.77;;;;;;;;;;5050795;28;20071;-70
2021/11/10 04:51:26;;;;;;;23.35;14.82;;;;;;;;;;5047751;28;20048;-70
2021/11/10 04:53:52;;;;;;;24.55;15.23;;;;;;;;;;5046557;28;20086;-70
2021/11/10 04:56:20;;;;;;;23.08;14.38;;;;;;;;;;5049601;28;20503;-71
2021/11/10 04:58:45;;;;;;;24.60;14.43;;;;;;;;;;5049800;28;20471;-70
2021/11/10 05:01:25;;;;;;;24.60;14.60;;;;;;;;;;5043209;28;20109;-70
2021/11/10 05:03:51;;;;;;;27.33;15.35;;;;;;;;;;5046275;28;20049;-70
2021/11/10 05:06:16;;;;;;;26.02;14.93;;;;;;;;;;5049665;28;20075;-70
2021/11/10 05:08:41;;;;;;;24.38;14.23;;;;;;;;;;5049495;28;20025;-71
2021/11/10 05:11:06;;;;;;;22.10;14.23;;;;;;;;;;5043516;28;20025;-71
2021/11/10 05:13:31;;;;;;;23.40;14.38;;;;;;;;;;5046953;28;20037;-71
2021/11/10 05:15:57;;;;;;;22.55;14.02;;;;;;;;;;5049248;28;20036;-70
2021/11/10 05:18:22;;;;;;;27.67;15.43;;;;;;;;;;5049890;28;20380;-70
2021/11/10 05:20:48;;;;;;;28.50;15.98;;;;;;;;;;5049089;28;21979;-71
2021/11/10 05:23:15;;;;;;;24.85;14.68;;;;;;;;;;5048443;28;20037;-71
2021/11/10 05:25:40;;;;;;;27.23;16.27;;;;;;;;;;5045384;28;20036;-70
2021/11/10 05:28:05;;;;;;;27.30;16.67;;;;;;;;;;5049276;28;20027;-71
2021/11/10 05:30:31;;;;;;;26.33;15.65;;;;;;;;;;5049501;28;20422;-70
2021/11/10 05:32:56;;;;;;;24.40;14.10;;;;;;;;;;5043662;28;20469;-71
2021/11/10 05:35:21;;;;;;;25.10;14.63;;;;;;;;;;5047221;28;20032;-71
2021/11/10 05:37:46;;;;;;;26.40;15.02;;;;;;;;;;5047460;28;20033;-69
2021/11/10 05:40:12;;;;;;;23.25;13.70;;;;;;;;;;5047183;28;20051;-69
2021/11/10 05:42:37;;;;;;;27.35;14.50;;;;;;;;;;5049656;28;20202;-70
2021/11/10 05:45:03;;;;;;;23.83;14.20;;;;;;;;;;5044944;28;20025;-71
2021/11/10 05:47:28;;;;;;;25.30;14.57;;;;;;;;;;5049564;28;20028;-69
2021/11/10 05:49:53;;;;;;;23.63;15.15;;;;;;;;;;5047543;28;20028;-70
2021/11/10 05:52:20;;;;;;;25.88;14.77;;;;;;;;;;5044300;28;20036;-71
2021/11/10 05:54:45;;;;;;;25.23;13.88;;;;;;;;;;5046154;28;20380;-71
2021/11/10 05:57:13;;;;;;;21.38;14.15;;;;;;;;;;5049821;28;20017;-69
2021/11/10 05:59:38;;;;;;;24.75;13.80;;;;;;;;;;5039760;28;20079;-71
2021/11/10 06:02:04;;;;;;;22.10;13.32;;;;;;;;;;5048692;28;20412;-70
2021/11/10 06:04:29;;;;;;;19.88;12.82;;;;;;;;;;5043995;28;20044;-71
2021/11/10 06:06:54;;;;;;;24.05;13.93;;;;;;;;;;5043862;28;20041;-63
2021/11/10 06:09:20;;;;;;;22.65;13.65;;;;;;;;;;5045576;28;20024;-63
2021/11/10 06:11:45;;;;;;;22.25;13.43;;;;;;;;;;5039262;28;20021;-63
2021/11/10 06:14:11;;;;;;;26.23;14.50;;;;;;;;;;5042010;28;20033;-62
2021/11/10 06:16:36;;;;;;;26.02;14.75;;;;;;;;;;5048926;28;20456;-62
2021/11/10 06:19:01;;;;;;;25.13;15.07;;;;;;;;;;5050092;28;20784;-63
2021/11/10 06:21:26;;;;;;;22.92;14.10;;;;;;;;;;5043394;28;20012;-62
2021/11/10 06:23:51;;;;;;;23.50;14.00;;;;;;;;;;5042418;28;20029;-62
2021/11/10 06:26:17;;;;;;;20.50;13.23;;;;;;;;;;5046482;28;20057;-62
2021/11/10 06:28:42;;;;;;;21.80;14.23;;;;;;;;;;5048022;28;20547;-62
2021/11/10 06:31:07;;;;;;;22.23;14.02;;;;;;;;;;5046664;28;20040;-63
2021/11/10 06:33:33;;;;;;;21.15;13.35;;;;;;;;;;5042544;28;20048;-62
2021/11/10 06:35:58;;;;;;;23.48;14.77;;;;;;;;;;5045463;28;20420;-63
2021/11/10 06:38:23;;;;;;;22.77;13.85;;;;;;;;;;5033090;28;20041;-64
2021/11/10 06:40:48;;;;;;;24.42;14.73;;;;;;;;;;5048730;28;20110;-62
2021/11/10 06:43:14;;;;;;;35.40;20.25;;;;;;;;;;5048358;28;20492;-62
2021/11/10 06:45:39;;;;;;;22.42;13.73;;;;;;;;;;5042866;28;20040;-62
2021/11/10 06:48:04;;;;;;;22.35;13.32;;;;;;;;;;5048667;28;20511;-63
2021/11/10 06:50:30;;;;;;;24.27;14.10;;;;;;;;;;5041386;28;20392;-62
2021/11/10 06:52:55;;;;;;;23.67;13.27;;;;;;;;;;5048392;28;20060;-64
2021/11/10 06:55:20;;;;;;;23.08;13.55;;;;;;;;;;5047590;28;20033;-62
2021/11/10 06:57:45;;;;;;;23.92;14.32;;;;;;;;;;5044715;28;20432;-62
2021/11/10 07:00:11;;;;;;;22.60;14.13;;;;;;;;;;5042357;28;20049;-63
2021/11/10 07:02:37;;;;;;;23.05;14.15;;;;;;;;;;5048052;28;20029;-63
2021/11/10 07:05:02;;;;;;;25.13;14.13;;;;;;;;;;5047837;28;20453;-63
2021/11/10 07:07:28;;;;;;;22.10;13.30;;;;;;;;;;5046037;28;20029;-63
2021/11/10 07:09:53;;;;;;;20.75;12.88;;;;;;;;;;5042707;28;20496;-63
2021/11/10 07:12:18;;;;;;;22.17;12.88;;;;;;;;;;5039810;28;20037;-62
2021/11/10 07:14:43;;;;;;;19.83;12.93;;;;;;;;;;5048147;28;20218;-62
2021/11/10 07:17:09;;;;;;;20.80;13.00;;;;;;;;;;5039835;28;20029;-62
2021/11/10 07:19:34;;;;;;;22.02;12.98;;;;;;;;;;5042991;28;20079;-63
2021/11/10 07:22:00;;;;;;;23.38;13.48;;;;;;;;;;5041449;28;20104;-63
2021/11/10 07:24:25;;;;;;;23.75;13.10;;;;;;;;;;5043732;28;20111;-63
2021/11/10 07:26:51;;;;;;;22.55;13.48;;;;;;;;;;5046827;28;20039;-62
2021/11/10 07:29:16;;;;;;;20.70;12.82;;;;;;;;;;5042626;28;20025;-62
2021/11/10 07:31:41;;;;;;;20.40;11.43;;;;;;;;;;5047457;28;20412;-62
2021/11/10 07:34:07;;;;;;;23.58;12.50;;;;;;;;;;5046132;28;20040;-63
2021/11/10 07:36:32;;;;;;;20.42;12.70;;;;;;;;;;5044510;28;20025;-63
2021/11/10 07:38:58;;;;;;;25.10;13.23;;;;;;;;;;5049399;28;20095;-63
2021/11/10 07:41:27;;;;;;;23.15;11.95;;;;;;;;;;5048537;28;20451;-63
2021/11/10 07:43:54;;;;;;;21.40;12.70;;;;;;;;;;5051898;28;20033;-63
2021/11/10 07:46:20;;;;;;;19.38;11.63;;;;;;;;;;5050662;28;20443;-62
2021/11/10 07:48:49;;;;;;;19.98;12.95;;;;;;;;;;5054962;28;20108;-62
2021/11/10 07:51:15;;;;;;;22.13;12.10;;;;;;;;;;5050305;28;20029;-64
2021/11/10 07:53:40;;;;;;;23.13;12.25;;;;;;;;;;5051931;28;20108;-64
2021/11/10 07:56:06;;;;;;;22.45;12.00;;;;;;;;;;5051819;28;20373;-62
2021/11/10 07:58:31;;;;;;;20.25;11.23;;;;;;;;;;5052136;28;20039;-63
2021/11/10 08:00:56;;;;;;;23.98;13.60;;;;;;;;;;5050909;28;20112;-62
2021/11/10 08:03:22;;;;;;;19.48;12.15;;;;;;;;;;5052221;28;20083;-63
2021/11/10 08:05:48;;;;;;;35.90;14.63;;;;;;;;;;5051703;28;20076;-63
2021/11/10 08:08:13;;;;;;;24.48;12.82;;;;;;;;;;5051760;28;20076;-63
2021/11/10 08:10:39;;;;;;;21.92;12.40;;;;;;;;;;5051261;28;20025;-63
2021/11/10 08:13:04;;;;;;;19.90;12.52;;;;;;;;;;5048432;28;20147;-63
2021/11/10 08:15:29;;;;;;;21.83;12.05;;;;;;;;;;5051831;28;20377;-62
2021/11/10 08:17:55;;;;;;;20.00;11.98;;;;;;;;;;5051547;28;20658;-64
2021/11/10 08:20:20;;;;;;;19.83;11.88;;;;;;;;;;5051567;28;20079;-63
2021/11/10 08:22:46;;;;;;;19.20;11.60;;;;;;;;;;5050583;28;20029;-63
2021/11/10 08:25:12;;;;;;;25.73;11.73;;;;;;;;;;5044584;28;20471;-63
2021/11/10 08:27:38;;;;;;;21.83;11.70;;;;;;;;;;5048946;28;20053;-63
2021/11/10 08:30:04;;;;;;;18.77;10.60;;;;;;;;;;5048564;28;20499;-63
2021/11/10 08:32:29;;;;;;;18.73;11.02;;;;;;;;;;5045707;28;20033;-64
2021/11/10 08:34:54;;;;;;;21.27;10.43;;;;;;;;;;5048369;28;20079;-63
2021/11/10 08:37:19;;;;;;;21.17;11.25;;;;;;;;;;5050783;28;20075;-63
2021/11/10 08:39:45;;;;;;;22.40;11.25;;;;;;;;;;5051134;28;20386;-64
2021/11/10 08:42:10;;;;;;;17.67;10.10;;;;;;;;;;5045385;28;20393;-63
2021/11/10 08:44:41;;;;;;;17.85;10.32;;;;;;;;;;5046502;28;20455;-63
2021/11/10 08:47:06;;;;;;;17.17;9.50;;;;;;;;;;5048168;28;20091;-64
2021/11/10 08:49:32;;;;;;;16.13;9.32;;;;;;;;;;5052022;28;20033;-63
2021/11/10 08:51:58;;;;;;;14.10;9.23;;;;;;;;;;5048427;28;20013;-63
2021/11/10 08:54:25;;;;;;;13.77;8.88;;;;;;;;;;5045083;28;20045;-63
2021/11/10 08:56:51;;;;;;;17.40;9.98;;;;;;;;;;5049888;28;20597;-63
2021/11/10 08:59:16;;;;;;;21.85;13.77;;;;;;;;;;5048522;28;20049;-63
2021/11/10 09:01:41;;;;;;;15.57;9.88;;;;;;;;;;5047011;28;20039;-63
2021/11/10 09:04:06;;;;;;;17.33;8.90;;;;;;;;;;5048069;28;20040;-63
2021/11/10 09:06:31;;;;;;;12.80;7.88;;;;;;;;;;5041794;28;20060;-64
2021/11/10 09:08:57;;;;;;;13.02;8.90;;;;;;;;;;5042816;28;20043;-63
2021/11/10 09:11:22;;;;;;;13.80;8.50;;;;;;;;;;5049535;28;20476;-63
2021/11/10 09:13:47;;;;;;;11.50;7.60;;;;;;;;;;5045807;28;20439;-63
2021/11/10 09:16:12;;;;;;;13.73;8.15;;;;;;;;;;5046716;28;20496;-63
2021/11/10 09:18:38;;;;;;;13.85;7.97;;;;;;;;;;5043555;28;20029;-63
2021/11/10 09:21:05;;;;;;;13.15;7.43;;;;;;;;;;5044922;28;20565;-64
2021/11/10 09:23:30;;;;;;;12.93;7.43;;;;;;;;;;5046507;28;20024;-64
2021/11/10 09:25:56;;;;;;;14.25;8.00;;;;;;;;;;5046316;28;20600;-63
2021/11/10 09:28:21;;;;;;;14.20;8.13;;;;;;;;;;5041733;28;20127;-63
2021/11/10 09:30:50;;;;;;;15.55;7.65;;;;;;;;;;5044876;28;20033;-64
2021/11/10 09:33:15;;;;;;;15.35;8.93;;;;;;;;;;5050063;28;20037;-63
2021/11/10 09:35:42;;;;;;;13.13;8.30;;;;;;;;;;5048792;28;20030;-62
2021/11/10 09:38:07;;;;;;;15.70;8.32;;;;;;;;;;5048020;28;20143;-64
2021/11/10 09:40:34;;;;;;;13.75;7.93;;;;;;;;;;5050023;28;20108;-63
2021/11/10 09:42:59;;;;;;;13.18;8.10;;;;;;;;;;5043264;28;20021;-63
2021/11/10 09:45:26;;;;;;;14.55;8.57;;;;;;;;;;5049949;28;20540;-63
2021/11/10 09:47:51;;;;;;;15.73;8.23;;;;;;;;;;5047605;28;20066;-63
2021/11/10 09:50:18;;;;;;;12.95;7.88;;;;;;;;;;5050252;28;20490;-63
2021/11/10 09:52:45;;;;;;;13.32;8.13;;;;;;;;;;5049444;28;20519;-64
2021/11/10 09:55:11;;;;;;;12.90;7.95;;;;;;;;;;5047402;28;20048;-64
2021/11/10 09:57:36;;;;;;;13.90;8.27;;;;;;;;;;5046224;28;20049;-63
2021/11/10 10:00:06;;;;;;;11.77;7.57;;;;;;;;;;5046688;28;20049;-64
2021/11/10 10:02:31;;;;;;;16.88;8.70;;;;;;;;;;5049441;28;20037;-63
2021/11/10 10:04:56;;;;;;;12.73;8.40;;;;;;;;;;5048444;28;20032;-62
2021/11/10 10:07:23;;;;;;;17.42;8.10;;;;;;;;;;5049705;28;20029;-63
2021/11/10 10:09:48;;;;;;;12.98;8.00;;;;;;;;;;5046027;28;20372;-64
2021/11/10 10:12:18;;;;;;;13.73;7.57;;;;;;;;;;5049234;28;20024;-64
2021/11/10 10:14:43;;;;;;;17.08;8.65;;;;;;;;;;5048958;28;20037;-63
2021/11/10 10:17:09;;;;;;;21.52;10.05;;;;;;;;;;5049320;28;20068;-63
2021/11/10 10:19:41;;;;;;;22.08;9.63;;;;;;;;;;5051634;28;20028;-63
2021/11/10 10:22:07;;;;;;;18.55;9.18;;;;;;;;;;5049381;28;20646;-62
2021/11/10 10:24:48;;;;;;;22.45;9.45;;;;;;;;;;5048998;28;20024;-64
2021/11/10 10:27:21;;;;;;;18.60;9.30;;;;;;;;;;5048851;28;20500;-63
2021/11/10 10:29:46;;;;;;;15.85;8.88;;;;;;;;;;5047457;28;20468;-63
2021/11/10 10:32:12;;;;;;;18.83;9.88;;;;;;;;;;5048784;28;20057;-63
2021/11/10 10:34:38;;;;;;;20.38;9.32;;;;;;;;;;5048664;28;20032;-63
2021/11/10 10:37:03;;;;;;;15.38;9.45;;;;;;;;;;5049142;28;20017;-63
2021/11/10 10:39:28;;;;;;;17.23;9.00;;;;;;;;;;5049056;28;20049;-65
2021/11/10 10:41:54;;;;;;;13.45;7.53;;;;;;;;;;5047159;28;20050;-63
2021/11/10 10:44:24;;;;;;;13.05;7.32;;;;;;;;;;5048758;28;20029;-63
2021/11/10 10:46:56;;;;;;;11.82;7.53;;;;;;;;;;5048925;28;20385;-65
2021/11/10 10:49:24;;;;;;;12.38;7.53;;;;;;;;;;5051855;28;20025;-63
2021/11/10 10:51:50;;;;;;;14.48;8.00;;;;;;;;;;5045301;28;20013;-63
2021/11/10 10:54:16;;;;;;;16.38;8.23;;;;;;;;;;5049254;28;20039;-64
2021/11/10 10:56:44;;;;;;;18.58;8.45;;;;;;;;;;5049358;28;20017;-63
2021/11/10 10:59:11;;;;;;;15.73;8.60;;;;;;;;;;5049236;28;20056;-63
2021/11/10 11:01:40;;;;;;;14.27;8.15;;;;;;;;;;5045744;28;20096;-64
2021/11/10 11:04:16;;;;;;;17.58;8.88;;;;;;;;;;5048936;28;20021;-64
2021/11/10 11:06:45;;;;;;;13.98;8.48;;;;;;;;;;5048531;28;20118;-63
2021/11/10 11:09:21;;;;;;;16.02;8.98;;;;;;;;;;5048832;28;20022;-64
2021/11/10 11:11:56;;;;;;;16.95;8.95;;;;;;;;;;5049327;28;20410;-64
2021/11/10 11:17:19;;;;;;;15.07;8.45;;;;;;;;;;5052840;28;20036;-64
2021/11/10 11:19:48;;;;;;;14.43;7.75;;;;;;;;;;5052510;28;20029;-63
2021/11/10 11:22:13;;;;;;;16.67;7.93;;;;;;;;;;5052170;28;20250;-63
2021/11/10 11:24:40;;;;;;;14.80;8.05;;;;;;;;;;5048654;28;20045;-63
2021/11/10 11:27:14;;;;;;;14.50;8.25;;;;;;;;;;5052612;28;20055;-63
2021/11/10 11:29:39;;;;;;;14.98;7.88;;;;;;;;;;5052380;28;20009;-64
2021/11/10 11:32:24;;;;;;;14.80;8.30;;;;;;;;;;5052514;28;20107;-63
2021/11/10 11:34:50;;;;;;;13.98;8.25;;;;;;;;;;5047627;28;20033;-63
2021/11/10 11:37:16;;;;;;;13.98;7.88;;;;;;;;;;5052066;28;20021;-63
2021/11/10 11:39:41;;;;;;;14.90;8.13;;;;;;;;;;5051903;28;20036;-63
2021/11/10 11:42:06;;;;;;;11.77;7.18;;;;;;;;;;5050173;28;20449;-64
2021/11/10 11:44:34;;;;;;;14.00;6.80;;;;;;;;;;5045884;28;20035;-63
2021/11/10 11:46:59;;;;;;;12.30;6.45;;;;;;;;;;5052406;28;20017;-62
2021/11/10 11:49:25;;;;;;;13.48;6.10;;;;;;;;;;5056399;28;20430;-62
2021/11/10 11:51:50;;;;;;;12.63;6.15;;;;;;;;;;5051987;28;20035;-64
2021/11/10 11:54:15;;;;;;;12.00;6.38;;;;;;;;;;5051474;28;20360;-62
2021/11/10 11:56:42;;;;;;;11.48;5.78;;;;;;;;;;5051772;28;20013;-62
2021/11/10 11:59:08;;;;;;;11.57;6.47;;;;;;;;;;5044799;28;20045;-63
2021/11/10 12:01:36;;;;;;;12.45;5.70;;;;;;;;;;5051593;28;20023;-65
2021/11/10 12:04:07;;;;;;;12.15;5.82;;;;;;;;;;5051942;28;20028;-63
2021/11/10 12:06:33;;;;;;;11.43;5.75;;;;;;;;;;5043752;28;20476;-64
2021/11/10 12:08:59;;;;;;;12.48;5.30;;;;;;;;;;5051349;28;20138;-63
2021/11/10 12:11:25;;;;;;;12.73;5.78;;;;;;;;;;5051841;28;20040;-64
2021/11/10 12:14:06;;;;;;;11.48;6.05;;;;;;;;;;5051222;28;20658;-64
2021/11/10 12:16:47;;;;;;;11.25;5.47;;;;;;;;;;5043661;28;20021;-64
2021/11/10 12:19:20;;;;;;;13.85;5.50;;;;;;;;;;5048793;28;20028;-64
2021/11/10 12:21:51;;;;;;;13.55;5.70;;;;;;;;;;5051014;28;20025;-64
2021/11/10 12:24:18;;;;;;;12.35;5.97;;;;;;;;;;5049212;28;20415;-64
2021/11/10 12:27:02;;;;;;;10.25;5.20;;;;;;;;;;5048436;28;20021;-65
2021/11/10 12:29:49;;;;;;;11.07;5.47;;;;;;;;;;5043905;28;20024;-65
2021/11/10 12:32:14;;;;;;;10.13;5.53;;;;;;;;;;5050547;28;20028;-65
2021/11/10 12:34:40;;;;;;;12.32;5.80;;;;;;;;;;5046338;28;20029;-64
2021/11/10 12:37:06;;;;;;;10.57;5.03;;;;;;;;;;5050211;28;20024;-66
2021/11/10 12:39:33;;;;;;;8.38;5.28;;;;;;;;;;5049698;28;20021;-68
2021/11/10 12:41:59;;;;;;;8.95;5.20;;;;;;;;;;5050570;28;20175;-64
2021/11/10 12:44:32;;;;;;;10.35;4.60;;;;;;;;;;5050768;28;20104;-65
2021/11/10 12:46:57;;;;;;;16.48;8.65;;;;;;;;;;5050258;28;20092;-66
2021/11/10 12:49:22;;;;;;;9.68;6.07;;;;;;;;;;5040670;28;20117;-65
2021/11/10 12:52:06;;;;;;;12.75;6.38;;;;;;;;;;5042632;28;20029;-64
2021/11/10 12:54:31;;;;;;;13.43;6.88;;;;;;;;;;5043399;28;20044;-64
2021/11/10 12:56:57;;;;;;;7.78;5.18;;;;;;;;;;5028465;28;20079;-63
2021/11/10 12:59:28;;;;;;;9.48;5.70;;;;;;;;;;5038930;28;20153;-64
2021/11/10 13:01:57;;;;;;;9.93;5.22;;;;;;;;;;5040042;28;20378;-63
2021/11/10 13:04:25;;;;;;;9.67;5.17;;;;;;;;;;5050163;28;20032;-64
2021/11/10 13:06:53;;;;;;;8.95;4.93;;;;;;;;;;5049418;28;20260;-63
2021/11/10 13:09:35;;;;;;;9.13;4.47;;;;;;;;;;5044829;28;20053;-63
2021/11/10 13:12:02;;;;;;;7.18;4.53;;;;;;;;;;5045017;28;20162;-63
2021/11/10 13:14:28;;;;;;;8.48;4.43;;;;;;;;;;5042866;28;20035;-64
2021/11/10 13:16:57;;;;;;;8.18;4.60;;;;;;;;;;5050156;28;20025;-64
2021/11/10 13:19:35;;;;;;;9.40;4.63;;;;;;;;;;5054683;28;20021;-63
2021/11/10 13:22:00;;;;;;;8.73;4.90;;;;;;;;;;5049012;28;20025;-64
2021/11/10 13:24:27;;;;;;;9.15;4.82;;;;;;;;;;5040967;28;20083;-66
2021/11/10 13:26:52;;;;;;;7.95;4.65;;;;;;;;;;5049717;28;20108;-63
2021/11/10 13:29:18;;;;;;;8.18;4.78;;;;;;;;;;5050354;28;20112;-63
2021/11/10 13:31:43;;;;;;;8.93;4.50;;;;;;;;;;5043385;28;20036;-64
2021/11/10 13:34:08;;;;;;;10.63;4.53;;;;;;;;;;5049415;28;20391;-64
2021/11/10 13:36:35;;;;;;;7.28;4.55;;;;;;;;;;5044120;28;20055;-64
2021/11/10 13:39:04;;;;;;;8.07;4.65;;;;;;;;;;5043794;28;20025;-64
2021/11/10 13:41:31;;;;;;;8.45;4.30;;;;;;;;;;5042640;28;20021;-63
2021/11/10 13:43:58;;;;;;;9.18;4.00;;;;;;;;;;5047806;28;20078;-64
2021/11/10 13:46:25;;;;;;;8.18;4.20;;;;;;;;;;5049325;28;20032;-65
2021/11/10 13:49:00;;;;;;;7.90;4.53;;;;;;;;;;5050657;28;20464;-63
2021/11/10 13:51:25;;;;;;;8.10;4.10;;;;;;;;;;5041730;28;20029;-64
2021/11/10 13:54:04;;;;;;;8.18;4.22;;;;;;;;;;5049082;28;20040;-64
2021/11/10 13:56:43;;;;;;;9.48;4.07;;;;;;;;;;5043315;28;20068;-64
2021/11/10 13:59:13;;;;;;;8.85;4.55;;;;;;;;;;5048885;28;20478;-64
2021/11/10 14:01:46;;;;;;;10.30;4.18;;;;;;;;;;5048421;28;20444;-63
2021/11/10 14:04:14;;;;;;;8.35;4.30;;;;;;;;;;5035115;28;20075;-64
2021/11/10 14:06:59;;;;;;;9.15;4.28;;;;;;;;;;5045260;28;20504;-64
2021/11/10 14:09:24;;;;;;;10.30;6.40;;;;;;;;;;5049165;28;20082;-63
2021/11/10 14:11:49;;;;;;;13.18;7.57;;;;;;;;;;5048153;28;20484;-64
2021/11/10 14:14:30;;;;;;;13.75;7.82;;;;;;;;;;5045086;28;20029;-64
2021/11/10 14:16:55;;;;;;;10.50;6.97;;;;;;;;;;5039033;28;20532;-63
2021/11/10 14:19:21;;;;;;;17.77;8.40;;;;;;;;;;5043768;28;20032;-64
2021/11/10 14:21:46;;;;;;;14.93;8.43;;;;;;;;;;5042588;28;20901;-64